La Habra, California
Current Conditions -  °F | °C
As of 6:53 AM on Monday 22 Dec 2014 (Local Time) from KFUL Reporting Station
Haze Haze  
Wind Chill:   Ceiling: Unl
Heat Index:   Visibility: 2.5mi
Dew Point:   Wind: 0mph
Humidity: 90%   Direction: NA
Pressure: 30.03"   Gusts: NA
Location:  33.93°N, 117.94°W
Report Text: KFUL 221453Z 00000KT 2 1/2SM BR CLR 09/08 A3003 RMK AO2 SLP169 T00940078 53002
Loading
Personal Weather Stations






























Interactive Weather Map New forecast layout! Learn more

10-Day Weather Forecast

Advertisements
Track Severe Weather on mobile